Time;durP1;ratioP1;P1;durP2;ratioP2;P2;SDS_P1;SDS_P2;PMS_P1;PMS_P2;Temp;Humidity;BMP_temperature;BMP_pressure;BME280_temperature;BME280_humidity;BME280_pressure;Samples;Min_cycle;Max_cycle;Signal;HPM_P1;HPM_P2
2023/10/30 00:01:03;;;;;;;7.85;2.35;;;;;;;12.45;73.44;99750.06;5032150;28;20029;-62
2023/10/30 00:03:29;;;;;;;9.48;2.30;;;;;;;12.48;73.10;99757.84;5032563;28;20034;-63
2023/10/30 00:05:55;;;;;;;12.40;2.25;;;;;;;12.46;73.33;99746.19;5032567;28;20099;-62
2023/10/30 00:08:21;;;;;;;11.57;2.58;;;;;;;12.39;73.44;99748.47;5056241;28;20037;-63
2023/10/30 00:10:47;;;;;;;8.77;2.20;;;;;;;12.41;73.78;99760.13;5045390;28;20025;-62
2023/10/30 00:13:12;;;;;;;6.97;2.33;;;;;;;12.44;73.40;99751.22;5049557;28;20548;-62
2023/10/30 00:15:37;;;;;;;8.98;2.70;;;;;;;12.48;73.33;99754.25;5070077;28;20032;-63
2023/10/30 00:18:03;;;;;;;10.15;2.40;;;;;;;12.38;73.84;99768.25;5060510;28;20435;-62
2023/10/30 00:20:28;;;;;;;8.38;2.30;;;;;;;12.41;73.82;99770.44;5063150;28;20040;-62
2023/10/30 00:22:53;;;;;;;12.60;2.58;;;;;;;12.44;73.59;99765.13;5055514;28;20017;-62
2023/10/30 00:25:21;;;;;;;10.95;2.35;;;;;;;12.43;73.60;99776.56;5068969;28;20040;-62
2023/10/30 00:27:46;;;;;;;8.95;2.28;;;;;;;12.39;73.74;99790.22;5055113;28;20032;-62
2023/10/30 00:30:12;;;;;;;12.27;2.40;;;;;;;12.39;73.82;99794.97;5060470;28;20029;-62
2023/10/30 00:32:37;;;;;;;5.88;2.08;;;;;;;12.42;74.18;99794.38;5060978;28;20020;-62
2023/10/30 00:35:03;;;;;;;10.50;2.47;;;;;;;12.40;74.26;99789.09;5067221;28;20032;-62
2023/10/30 00:37:31;;;;;;;12.32;2.83;;;;;;;12.40;74.06;99799.41;5062102;28;20028;-62
2023/10/30 00:39:56;;;;;;;12.38;2.42;;;;;;;12.43;74.14;99802.44;5066904;28;20155;-62
2023/10/30 00:42:25;;;;;;;11.48;2.72;;;;;;;12.40;73.76;99805.78;5060237;28;20481;-62
2023/10/30 00:44:50;;;;;;;7.68;2.05;;;;;;;12.39;74.06;99804.13;5065774;28;20071;-62
2023/10/30 00:47:16;;;;;;;9.55;2.10;;;;;;;12.41;74.09;99809.41;5051967;28;20497;-62
2023/10/30 00:49:41;;;;;;;8.80;1.95;;;;;;;12.41;74.32;99814.97;5051414;28;20044;-62
2023/10/30 00:52:06;;;;;;;12.15;2.78;;;;;;;12.40;74.20;99819.72;5051025;28;20132;-62
2023/10/30 00:54:32;;;;;;;12.68;2.30;;;;;;;12.40;74.29;99819.72;5052014;28;20033;-62
2023/10/30 00:56:57;;;;;;;10.35;2.90;;;;;;;12.40;74.44;99824.44;5051105;28;20017;-62
2023/10/30 00:59:22;;;;;;;10.00;2.33;;;;;;;12.41;74.41;99824.16;5051822;28;20028;-62
2023/10/30 01:01:48;;;;;;;10.10;2.30;;;;;;;12.40;74.17;99828.06;5053380;28;20423;-62
2023/10/30 01:04:14;;;;;;;10.68;2.45;;;;;;;12.39;74.41;99836.72;5037138;28;20377;-62
2023/10/30 01:06:39;;;;;;;14.43;2.92;;;;;;;12.38;75.07;99833.09;5037156;28;20044;-62
2023/10/30 01:09:04;;;;;;;9.35;2.35;;;;;;;12.41;74.87;99838.06;5050878;28;20123;-62
2023/10/30 01:11:30;;;;;;;10.70;2.22;;;;;;;12.33;75.07;99838.69;5051450;28;20060;-62
2023/10/30 01:13:55;;;;;;;7.63;2.22;;;;;;;12.37;74.69;99848.09;5051100;28;20053;-62
2023/10/30 01:16:20;;;;;;;13.88;2.50;;;;;;;12.35;75.39;99849.53;5050826;28;20032;-62
2023/10/30 01:18:46;;;;;;;8.55;2.17;;;;;;;12.36;75.37;99853.97;5068083;28;20476;-62
2023/10/30 01:21:12;;;;;;;15.20;2.42;;;;;;;12.33;75.34;99857.34;5039656;28;20044;-62
2023/10/30 01:23:38;;;;;;;7.15;2.25;;;;;;;12.37;74.95;99852.84;5051567;28;20032;-62
2023/10/30 01:26:04;;;;;;;11.02;2.60;;;;;;;12.36;75.54;99859.53;5069995;28;20056;-62
2023/10/30 01:28:29;;;;;;;9.95;2.35;;;;;;;12.36;75.28;99846.44;5071350;28;20029;-62
2023/10/30 01:30:55;;;;;;;10.50;2.00;;;;;;;12.36;75.55;99843.66;5070371;28;20097;-62
2023/10/30 01:33:21;;;;;;;14.43;2.58;;;;;;;12.39;75.74;99845.88;5070757;28;20044;-62
2023/10/30 01:35:46;;;;;;;11.90;2.47;;;;;;;12.38;75.69;99841.44;5053748;28;20021;-62
2023/10/30 01:38:11;;;;;;;10.65;2.45;;;;;;;12.37;75.68;99838.94;5045169;28;20147;-62
2023/10/30 01:40:37;;;;;;;9.32;1.92;;;;;;;12.40;75.21;99844.75;5043583;28;20045;-62
2023/10/30 01:43:08;;;;;;;10.85;2.20;;;;;;;12.39;75.19;99853.41;5031170;28;20021;-62
2023/10/30 01:45:34;;;;;;;10.77;2.60;;;;;;;12.37;75.36;99847.28;5030434;28;20030;-62
2023/10/30 01:48:00;;;;;;;9.52;2.47;;;;;;;12.41;75.34;99849.19;5031097;28;20030;-62
2023/10/30 01:50:25;;;;;;;7.78;2.42;;;;;;;12.35;75.42;99844.81;5031132;28;20036;-62
2023/10/30 01:52:50;;;;;;;11.23;2.45;;;;;;;12.37;75.44;99841.72;5047239;28;20068;-62
2023/10/30 01:55:16;;;;;;;8.93;2.38;;;;;;;12.32;75.54;99847.31;5036775;28;20035;-62
2023/10/30 01:57:42;;;;;;;10.95;1.95;;;;;;;12.32;75.52;99856.50;5038067;28;20113;-62
2023/10/30 02:00:08;;;;;;;11.30;2.00;;;;;;;12.34;75.29;99853.41;5050550;28;20362;-62
2023/10/30 02:02:34;;;;;;;11.13;2.20;;;;;;;12.35;75.18;99863.44;5064316;28;20107;-62
2023/10/30 02:04:59;;;;;;;11.43;2.22;;;;;;;12.39;75.49;99865.38;5055246;28;20025;-62
2023/10/30 02:07:25;;;;;;;9.23;2.00;;;;;;;12.37;75.16;99864.81;5054152;28;20357;-62
2023/10/30 02:09:51;;;;;;;11.13;2.28;;;;;;;12.36;75.11;99854.81;5055638;28;20036;-62
2023/10/30 02:12:16;;;;;;;11.43;2.67;;;;;;;12.33;74.98;99855.38;5053309;28;20024;-62
2023/10/30 02:14:42;;;;;;;12.55;2.80;;;;;;;12.34;75.35;99856.19;5073723;28;20069;-62
2023/10/30 02:17:07;;;;;;;11.25;1.88;;;;;;;12.36;75.26;99857.59;5070928;28;20156;-62
2023/10/30 02:19:32;;;;;;;6.05;1.92;;;;;;;12.33;74.95;99847.03;5041969;28;20032;-62
2023/10/30 02:21:58;;;;;;;9.77;2.00;;;;;;;12.32;74.77;99862.06;5040784;28;20049;-62
2023/10/30 02:24:24;;;;;;;9.68;2.33;;;;;;;12.32;74.96;99859.28;5045823;28;20051;-62
2023/10/30 02:26:50;;;;;;;7.72;2.40;;;;;;;12.32;74.89;99855.69;5032933;28;20033;-62
2023/10/30 02:29:16;;;;;;;9.60;2.00;;;;;;;12.34;74.88;99853.41;5047924;28;20029;-62
2023/10/30 02:31:42;;;;;;;3.50;2.13;;;;;;;12.35;74.77;99852.31;5034143;28;20042;-62
2023/10/30 02:34:08;;;;;;;10.25;2.58;;;;;;;12.35;74.81;99852.31;5052704;28;20115;-62
2023/10/30 02:36:33;;;;;;;8.70;1.95;;;;;;;12.38;74.45;99852.56;5042945;28;20021;-62
2023/10/30 02:39:03;;;;;;;11.25;1.88;;;;;;;12.35;74.53;99850.38;5039573;28;20081;-62
2023/10/30 02:41:31;;;;;;;8.45;2.00;;;;;;;12.38;74.46;99849.78;5036847;28;20025;-62
2023/10/30 02:44:03;;;;;;;9.18;2.30;;;;;;;12.36;74.54;99845.63;5048614;28;20115;-62
2023/10/30 02:46:31;;;;;;;10.20;2.47;;;;;;;12.39;74.80;99843.09;5053245;28;20029;-62
2023/10/30 02:48:56;;;;;;;8.88;1.98;;;;;;;12.35;74.39;99844.81;5049879;28;20038;-62
2023/10/30 02:51:21;;;;;;;10.10;2.25;;;;;;;12.34;74.56;99845.94;5043390;28;20055;-62
2023/10/30 02:53:47;;;;;;;6.05;1.90;;;;;;;12.32;74.83;99838.97;5053664;28;20068;-62
2023/10/30 02:56:12;;;;;;;8.82;2.00;;;;;;;12.35;74.89;99844.81;5040612;28;20481;-63
2023/10/30 02:58:38;;;;;;;7.55;1.90;;;;;;;12.28;74.57;99834.00;5041776;28;20556;-62
2023/10/30 03:01:04;;;;;;;8.98;2.17;;;;;;;12.34;75.03;99840.38;5046252;28;20033;-62
2023/10/30 03:03:29;;;;;;;11.73;1.88;;;;;;;12.32;75.03;99844.53;5049066;28;20055;-62
2023/10/30 03:05:55;;;;;;;10.80;2.53;;;;;;;12.31;75.18;99845.69;5041617;28;20076;-62
2023/10/30 03:08:21;;;;;;;12.38;2.72;;;;;;;12.28;75.16;99835.94;5062009;28;20028;-62
2023/10/30 03:10:49;;;;;;;8.00;2.13;;;;;;;12.28;75.03;99839.56;5054528;28;20507;-62
2023/10/30 03:13:23;;;;;;;9.50;1.90;;;;;;;12.32;75.43;99844.53;5039485;28;20044;-62
2023/10/30 03:15:48;;;;;;;10.07;1.95;;;;;;;12.29;75.58;99851.50;5038536;28;20534;-62
2023/10/30 03:18:14;;;;;;;10.88;2.20;;;;;;;12.32;75.50;99861.25;5039536;28;20017;-62
2023/10/30 03:20:39;;;;;;;9.73;2.70;;;;;;;12.33;75.50;99857.34;5033240;28;20204;-62
2023/10/30 03:23:05;;;;;;;8.70;2.63;;;;;;;12.33;75.11;99863.72;5042737;28;20017;-62
2023/10/30 03:25:30;;;;;;;9.25;2.22;;;;;;;12.31;75.48;99868.75;5052081;28;20124;-62
2023/10/30 03:27:55;;;;;;;9.68;1.98;;;;;;;12.31;75.24;99867.94;5048447;28;20037;-62
2023/10/30 03:30:21;;;;;;;11.05;2.45;;;;;;;12.31;75.23;99863.19;5050119;28;20095;-62
2023/10/30 03:32:49;;;;;;;6.28;1.83;;;;;;;12.27;75.90;99871.28;5049874;28;20031;-62
2023/10/30 03:35:14;;;;;;;8.68;2.10;;;;;;;12.26;75.74;99866.00;5041468;28;20025;-62
2023/10/30 03:37:39;;;;;;;8.38;2.03;;;;;;;12.28;75.55;99860.97;5035147;28;20083;-62
2023/10/30 03:40:05;;;;;;;11.35;2.38;;;;;;;12.27;75.85;99857.38;5040919;28;20475;-62
2023/10/30 03:42:30;;;;;;;8.05;2.13;;;;;;;12.29;75.73;99860.69;5038349;28;20029;-62
2023/10/30 03:44:56;;;;;;;8.15;2.17;;;;;;;12.27;75.78;99854.59;5052044;28;20082;-62
2023/10/30 03:47:21;;;;;;;9.63;2.38;;;;;;;12.21;76.34;99849.34;5050365;28;20029;-63
2023/10/30 03:49:46;;;;;;;6.55;2.10;;;;;;;12.26;75.95;99860.44;5042012;28;20021;-62
2023/10/30 03:52:12;;;;;;;10.68;2.95;;;;;;;12.23;75.70;99856.28;5054260;28;20037;-62
2023/10/30 03:54:37;;;;;;;10.40;2.40;;;;;;;12.17;76.76;99859.38;5051572;28;20033;-62
2023/10/30 03:57:02;;;;;;;11.77;2.50;;;;;;;12.21;76.13;99868.81;5048909;28;20032;-62
2023/10/30 03:59:28;;;;;;;9.15;2.00;;;;;;;12.20;76.14;99856.03;5057574;28;20028;-62
2023/10/30 04:01:54;;;;;;;14.35;2.30;;;;;;;12.20;76.53;99853.25;5052931;28;20040;-62
2023/10/30 04:04:19;;;;;;;11.52;2.25;;;;;;;12.19;76.01;99857.16;5052705;28;20037;-62
2023/10/30 04:06:44;;;;;;;7.78;2.03;;;;;;;12.18;76.67;99856.34;5052496;28;20021;-62
2023/10/30 04:09:19;;;;;;;7.68;2.45;;;;;;;12.21;76.38;99852.94;5052642;28;20461;-62
2023/10/30 04:11:48;;;;;;;10.18;2.40;;;;;;;12.16;76.74;99861.34;5058445;28;20028;-61
2023/10/30 04:14:14;;;;;;;9.77;2.28;;;;;;;12.14;76.36;99855.22;5063058;28;20025;-61
2023/10/30 04:16:39;;;;;;;9.55;2.20;;;;;;;12.15;76.45;99853.28;5039648;28;20029;-61
2023/10/30 04:19:04;;;;;;;6.88;1.95;;;;;;;12.19;76.64;99862.72;5031597;28;20071;-62
2023/10/30 04:21:30;;;;;;;7.32;2.17;;;;;;;12.14;76.58;99859.94;5032515;28;20068;-62
2023/10/30 04:23:55;;;;;;;9.30;2.13;;;;;;;12.14;76.34;99858.00;5035125;28;20063;-62
2023/10/30 04:26:21;;;;;;;10.23;2.55;;;;;;;12.12;76.66;99851.91;5054132;28;20048;-62
2023/10/30 04:28:46;;;;;;;10.73;2.25;;;;;;;12.10;76.84;99859.69;5071489;28;20162;-62
2023/10/30 04:31:11;;;;;;;11.07;2.25;;;;;;;12.11;76.85;99860.56;5071776;28;20024;-62
2023/10/30 04:33:37;;;;;;;8.10;2.00;;;;;;;12.13;76.81;99864.69;5044201;28;20041;-62
2023/10/30 04:36:03;;;;;;;7.25;2.20;;;;;;;12.14;76.46;99859.94;5036426;28;20030;-62
2023/10/30 04:38:32;;;;;;;7.25;2.03;;;;;;;12.11;76.52;99864.16;5031960;28;20030;-62
2023/10/30 04:41:02;;;;;;;8.35;2.20;;;;;;;12.09;76.82;99862.78;5034657;28;20029;-62
2023/10/30 04:43:27;;;;;;;9.77;2.00;;;;;;;12.11;76.64;99866.13;5051977;28;20406;-62
2023/10/30 04:45:52;;;;;;;13.65;2.22;;;;;;;12.06;76.75;99863.34;5070210;28;20016;-62
2023/10/30 04:48:17;;;;;;;10.00;2.30;;;;;;;12.06;76.69;99874.47;5071162;28;20065;-62
2023/10/30 04:50:43;;;;;;;12.38;2.38;;;;;;;12.05;76.75;99868.06;5049423;28;20457;-62
2023/10/30 04:53:09;;;;;;;8.40;2.22;;;;;;;12.08;76.70;99861.94;5038281;28;20029;-62
2023/10/30 04:55:36;;;;;;;9.38;2.33;;;;;;;12.07;76.85;99867.81;5038110;28;20060;-62
2023/10/30 04:58:02;;;;;;;9.68;2.28;;;;;;;12.07;76.86;99859.47;5051512;28;20041;-62
2023/10/30 05:00:27;;;;;;;8.07;1.80;;;;;;;12.04;76.81;99860.88;5049599;28;20426;-62
2023/10/30 05:02:52;;;;;;;10.88;2.25;;;;;;;12.03;76.99;99854.47;5044707;28;20029;-63
2023/10/30 05:05:18;;;;;;;9.00;2.15;;;;;;;12.01;76.92;99856.69;5049391;28;20025;-62
2023/10/30 05:07:44;;;;;;;9.20;2.13;;;;;;;11.98;77.42;99857.25;5050986;28;20055;-63
2023/10/30 05:10:10;;;;;;;12.50;2.30;;;;;;;11.99;76.92;99853.38;5053497;28;20021;-62
2023/10/30 05:12:36;;;;;;;10.40;2.38;;;;;;;11.98;77.27;99848.91;5062042;28;20036;-62
2023/10/30 05:15:01;;;;;;;8.75;2.40;;;;;;;11.97;77.24;99858.38;5067182;28;20042;-62
2023/10/30 05:17:27;;;;;;;14.13;2.72;;;;;;;11.99;76.89;99858.94;5070636;28;20016;-63
2023/10/30 05:19:52;;;;;;;7.70;1.98;;;;;;;11.98;77.44;99860.03;5069600;28;20456;-62
2023/10/30 05:22:18;;;;;;;9.63;2.20;;;;;;;11.97;76.99;99863.94;5037445;28;20025;-62
2023/10/30 05:24:43;;;;;;;11.05;2.30;;;;;;;11.94;77.15;99858.13;5056723;28;20488;-61
2023/10/30 05:27:11;;;;;;;9.77;2.30;;;;;;;11.90;77.39;99857.88;5049040;28;20025;-62
2023/10/30 05:29:37;;;;;;;6.60;1.90;;;;;;;11.94;77.44;99853.38;5046122;28;20511;-62
2023/10/30 05:32:06;;;;;;;8.50;1.92;;;;;;;11.91;77.56;99855.94;5056164;28;20051;-62
2023/10/30 05:34:34;;;;;;;10.50;2.22;;;;;;;11.93;77.30;99843.41;5057131;28;20563;-62
2023/10/30 05:37:01;;;;;;;10.93;1.90;;;;;;;11.92;77.04;99840.91;5052143;28;20470;-62
2023/10/30 05:39:27;;;;;;;6.32;1.92;;;;;;;11.92;77.17;99830.63;5057429;28;20746;-62
2023/10/30 05:41:52;;;;;;;10.13;2.28;;;;;;;11.91;77.39;99839.25;5051804;28;20056;-62
2023/10/30 05:44:18;;;;;;;8.90;2.40;;;;;;;11.89;77.15;99847.88;5054671;28;20472;-62
2023/10/30 05:46:46;;;;;;;6.82;1.90;;;;;;;11.87;77.45;99850.13;5058626;28;20021;-62
2023/10/30 05:49:11;;;;;;;11.40;2.53;;;;;;;11.85;77.15;99849.56;5057707;28;20468;-62
2023/10/30 05:51:36;;;;;;;12.95;2.10;;;;;;;11.85;77.12;99857.91;5057509;28;20042;-62
2023/10/30 05:54:02;;;;;;;9.73;2.33;;;;;;;11.84;77.64;99845.13;5055352;28;20032;-62
2023/10/30 05:56:27;;;;;;;8.45;2.15;;;;;;;11.82;77.82;99841.75;5055986;28;20468;-61
2023/10/30 05:58:53;;;;;;;10.52;1.95;;;;;;;11.85;77.41;99835.66;5057163;28;20119;-62
2023/10/30 06:01:18;;;;;;;9.80;2.25;;;;;;;11.84;77.46;99847.06;5049228;28;20101;-63
2023/10/30 06:03:44;;;;;;;10.65;2.00;;;;;;;11.82;77.49;99844.53;5051708;28;20086;-62
2023/10/30 06:06:12;;;;;;;9.75;1.83;;;;;;;11.80;77.83;99836.50;5060702;28;20063;-62
2023/10/30 06:08:37;;;;;;;9.02;2.33;;;;;;;11.81;77.33;99834.53;5055369;28;20037;-62
2023/10/30 06:11:03;;;;;;;8.75;2.47;;;;;;;11.77;77.85;99833.44;5056923;28;20115;-62
2023/10/30 06:13:28;;;;;;;9.38;2.10;;;;;;;11.77;77.77;99841.78;5054092;28;20051;-63
2023/10/30 06:15:55;;;;;;;9.75;2.10;;;;;;;11.79;77.63;99842.34;5058088;28;20075;-62
2023/10/30 06:18:21;;;;;;;10.00;2.30;;;;;;;11.76;77.78;99842.91;5049751;28;20463;-62
2023/10/30 06:20:47;;;;;;;10.60;2.13;;;;;;;11.74;77.82;99853.47;5053303;28;20019;-62
2023/10/30 06:23:12;;;;;;;9.00;2.08;;;;;;;11.75;77.98;99853.19;5048856;28;20105;-62
2023/10/30 06:25:38;;;;;;;7.10;2.00;;;;;;;11.74;78.22;99861.81;5050381;28;20053;-62
2023/10/30 06:28:03;;;;;;;8.77;2.10;;;;;;;11.73;78.17;99865.72;5053891;28;20043;-62
2023/10/30 06:30:28;;;;;;;10.05;2.42;;;;;;;11.75;77.90;99867.09;5052986;28;20112;-63
2023/10/30 06:32:54;;;;;;;12.77;2.25;;;;;;;11.70;78.03;99869.88;5050673;28;20371;-62
2023/10/30 06:35:22;;;;;;;11.20;2.40;;;;;;;11.66;78.31;99870.75;5056618;28;20071;-63
2023/10/30 06:37:47;;;;;;;11.38;2.20;;;;;;;11.72;78.53;99880.75;5054819;28;20045;-63
2023/10/30 06:40:12;;;;;;;12.25;2.85;;;;;;;11.71;78.52;99879.06;5052993;28;20446;-63
2023/10/30 06:42:38;;;;;;;9.05;1.92;;;;;;;11.68;78.68;99891.59;5051871;28;20128;-63
2023/10/30 06:45:06;;;;;;;7.15;2.10;;;;;;;11.66;78.71;99895.75;5057461;28;20028;-63
2023/10/30 06:47:32;;;;;;;7.70;1.88;;;;;;;11.65;78.90;99894.09;5050427;28;20071;-63
2023/10/30 06:49:58;;;;;;;11.38;2.17;;;;;;;11.68;78.79;99893.53;5046851;28;20060;-63
2023/10/30 06:52:23;;;;;;;13.00;2.15;;;;;;;11.64;78.62;99900.78;5051149;28;20033;-62
2023/10/30 06:54:48;;;;;;;13.27;2.53;;;;;;;11.70;78.80;99894.06;5055842;28;20366;-61
2023/10/30 06:57:13;;;;;;;6.72;2.17;;;;;;;11.65;78.85;99896.88;5057065;28;20028;-62
2023/10/30 06:59:39;;;;;;;8.07;2.20;;;;;;;11.66;78.62;99898.53;5051742;28;20039;-62
2023/10/30 07:02:04;;;;;;;6.95;1.80;;;;;;;11.67;78.88;99905.75;5051065;28;20070;-63
2023/10/30 07:04:30;;;;;;;11.23;2.10;;;;;;;11.66;78.75;99902.16;5055154;28;20025;-61
2023/10/30 07:06:55;;;;;;;8.88;2.42;;;;;;;11.67;78.71;99889.06;5050753;28;20083;-61
2023/10/30 07:09:21;;;;;;;8.43;2.35;;;;;;;11.70;78.59;99891.28;5049581;28;20098;-62
2023/10/30 07:11:46;;;;;;;9.85;2.10;;;;;;;11.69;79.05;99897.97;5048400;28;20029;-61
2023/10/30 07:14:17;;;;;;;10.65;2.35;;;;;;;11.66;79.04;99913.25;5054381;28;20538;-61
2023/10/30 07:16:42;;;;;;;7.72;2.17;;;;;;;11.67;79.43;99897.41;5048533;28;20396;-61
2023/10/30 07:19:08;;;;;;;10.80;2.20;;;;;;;11.65;79.54;99896.88;5043278;28;20040;-61
2023/10/30 07:21:33;;;;;;;9.68;2.08;;;;;;;11.68;79.54;99899.94;5057225;28;20028;-61
2023/10/30 07:23:58;;;;;;;9.73;2.28;;;;;;;11.66;79.18;99904.94;5048717;28;20039;-61
2023/10/30 07:26:24;;;;;;;11.63;2.40;;;;;;;11.70;79.45;99899.63;5047674;28;20104;-62
2023/10/30 07:28:51;;;;;;;12.40;2.67;;;;;;;11.71;80.00;99904.06;5043276;28;20335;-61
2023/10/30 07:31:18;;;;;;;12.95;2.33;;;;;;;11.73;79.88;99915.75;5052742;28;20494;-61
2023/10/30 07:33:44;;;;;;;11.95;2.60;;;;;;;11.74;79.57;99920.19;5050387;28;20029;-61
2023/10/30 07:36:09;;;;;;;13.32;1.98;;;;;;;11.76;79.17;99926.31;5056557;28;20026;-62
2023/10/30 07:38:36;;;;;;;11.82;2.20;;;;;;;11.81;79.32;99931.84;5040437;28;20025;-62
2023/10/30 07:41:02;;;;;;;8.43;2.08;;;;;;;11.79;79.68;99937.69;5034369;28;20112;-62
2023/10/30 07:43:28;;;;;;;9.13;2.10;;;;;;;11.83;79.44;99946.34;5030838;28;20045;-61
2023/10/30 07:45:53;;;;;;;11.02;2.45;;;;;;;11.84;79.99;99936.06;5046952;28;20033;-61
2023/10/30 07:48:20;;;;;;;9.27;2.20;;;;;;;11.85;79.71;99929.38;5043317;28;20481;-61
2023/10/30 07:50:46;;;;;;;12.13;2.60;;;;;;;11.87;79.25;99935.47;5035081;28;20030;-61
2023/10/30 07:53:11;;;;;;;7.50;2.00;;;;;;;11.89;79.26;99930.47;5047201;28;20048;-62
2023/10/30 07:55:38;;;;;;;9.65;2.40;;;;;;;11.88;79.78;99926.84;5050595;28;20117;-61
2023/10/30 07:58:04;;;;;;;9.75;2.38;;;;;;;11.91;79.96;99925.47;5047586;28;20029;-62
2023/10/30 08:00:30;;;;;;;10.70;2.55;;;;;;;11.95;79.60;99932.94;5045295;28;21135;-61
2023/10/30 08:02:55;;;;;;;8.57;2.35;;;;;;;11.95;79.74;99927.38;5051823;28;20055;-60
2023/10/30 08:05:21;;;;;;;10.82;2.15;;;;;;;12.01;79.56;99922.63;5048196;28;20033;-62
2023/10/30 08:07:47;;;;;;;12.32;2.55;;;;;;;12.02;79.66;99940.97;5057475;28;20036;-62
2023/10/30 08:10:13;;;;;;;10.98;2.85;;;;;;;11.99;79.20;99939.59;5057822;28;20029;-61
2023/10/30 08:12:39;;;;;;;11.25;2.28;;;;;;;11.98;79.80;99940.69;5051068;28;20169;-61
2023/10/30 08:15:06;;;;;;;9.13;2.47;;;;;;;11.98;79.72;99946.25;5043307;28;20064;-62
2023/10/30 08:17:31;;;;;;;9.45;2.50;;;;;;;12.03;79.78;99937.91;5042720;28;20488;-61
2023/10/30 08:19:56;;;;;;;13.18;2.83;;;;;;;12.05;79.84;99934.81;5029806;28;20040;-62
2023/10/30 08:22:22;;;;;;;12.27;2.00;;;;;;;12.06;79.54;99936.50;5034699;28;20021;-62
2023/10/30 08:24:47;;;;;;;5.47;1.92;;;;;;;12.08;79.87;99927.88;5038266;28;20134;-61
2023/10/30 08:27:12;;;;;;;12.95;2.35;;;;;;;12.13;79.96;99936.19;5059547;28;20572;-61
2023/10/30 08:29:38;;;;;;;14.60;2.78;;;;;;;12.14;79.87;99948.97;5041290;28;20025;-62
2023/10/30 08:32:03;;;;;;;9.75;2.33;;;;;;;12.15;79.87;99945.91;5041839;28;20041;-63
2023/10/30 08:34:29;;;;;;;14.05;2.45;;;;;;;12.19;79.87;99949.78;5053526;28;20033;-63
2023/10/30 08:37:00;;;;;;;11.35;2.60;;;;;;;12.22;79.77;99945.59;5045028;28;20025;-61
2023/10/30 08:39:25;;;;;;;9.00;2.65;;;;;;;12.54;83.91;99942.38;5031204;28;20476;-61
2023/10/30 08:41:50;;;;;;;12.32;2.45;;;;;;;12.40;80.31;99935.75;5039366;28;20176;-63
2023/10/30 08:44:16;;;;;;;9.95;2.35;;;;;;;12.45;80.12;99939.34;5044341;28;20033;-63
2023/10/30 08:46:41;;;;;;;9.88;2.00;;;;;;;12.44;79.91;99931.28;5048742;28;20069;-63
2023/10/30 08:49:06;;;;;;;10.15;2.53;;;;;;;12.45;80.23;99942.13;5052569;28;20437;-63
2023/10/30 08:51:39;;;;;;;12.07;3.00;;;;;;;12.46;80.78;99945.75;5039747;28;20032;-62
2023/10/30 08:54:04;;;;;;;;;;;;;;;12.53;79.77;99935.94;5057642;28;20040;-62
2023/10/30 08:56:29;;;;;;;10.23;2.63;;;;;;;12.46;79.95;99940.19;5051214;28;19989;-62
2023/10/30 08:58:55;;;;;;;11.98;2.85;;;;;;;12.51;80.43;99934.59;5055615;28;20031;-63
2023/10/30 09:01:21;;;;;;;8.82;2.33;;;;;;;12.49;79.66;99934.03;5049343;28;20029;-63
2023/10/30 09:03:46;;;;;;;12.10;2.05;;;;;;;12.49;80.11;99936.81;5052330;28;20028;-64
2023/10/30 09:06:11;;;;;;;9.50;2.00;;;;;;;12.49;80.62;99939.59;5047384;28;20446;-62
2023/10/30 09:08:39;;;;;;;13.80;2.53;;;;;;;12.45;80.58;99944.91;5050174;28;20036;-62
2023/10/30 09:11:05;;;;;;;10.07;2.55;;;;;;;12.45;80.25;99953.25;5048894;28;20029;-60
2023/10/30 09:13:31;;;;;;;11.23;2.65;;;;;;;12.47;80.71;99948.25;5043130;28;20097;-61
2023/10/30 09:15:56;;;;;;;13.77;2.20;;;;;;;12.49;80.77;99950.72;5052670;28;20035;-60
2023/10/30 09:18:21;;;;;;;4.65;1.88;;;;;;;12.49;80.82;99945.97;5056315;28;20044;-60
2023/10/30 09:20:47;;;;;;;11.18;2.47;;;;;;;12.54;80.95;99945.16;5050873;28;20032;-60
2023/10/30 09:23:12;;;;;;;7.20;2.17;;;;;;;12.54;81.39;99936.78;5042439;28;20033;-60
2023/10/30 09:25:37;;;;;;;7.63;2.00;;;;;;;12.55;81.00;99932.06;5057151;28;20092;-60
2023/10/30 09:28:03;;;;;;;9.30;2.03;;;;;;;12.55;81.24;99932.06;5047773;28;20065;-61
2023/10/30 09:30:30;;;;;;;7.72;2.60;;;;;;;12.56;80.73;99928.16;5057195;28;20040;-62
2023/10/30 09:32:58;;;;;;;11.38;2.08;;;;;;;12.56;80.70;99926.19;5043941;28;20025;-62
2023/10/30 09:35:24;;;;;;;8.70;1.88;;;;;;;12.57;81.00;99925.06;5042849;28;20108;-62
2023/10/30 09:37:49;;;;;;;9.30;2.22;;;;;;;12.60;81.33;99929.22;5047472;28;20021;-62
2023/10/30 09:40:14;;;;;;;8.07;2.05;;;;;;;12.61;80.86;99944.81;5039491;28;20036;-62
2023/10/30 09:42:50;;;;;;;10.68;2.05;;;;;;;12.64;81.11;99930.31;5031433;28;20248;-62
2023/10/30 09:45:17;;;;;;;8.07;2.00;;;;;;;12.63;81.00;99937.00;5056342;28;20116;-62
2023/10/30 09:47:42;;;;;;;6.78;1.95;;;;;;;12.63;81.53;99931.44;5050080;28;20186;-62
2023/10/30 09:50:09;;;;;;;6.70;1.98;;;;;;;12.64;81.14;99924.75;5042450;28;20112;-62
2023/10/30 09:52:36;;;;;;;6.63;2.08;;;;;;;12.64;81.58;99925.56;5052415;28;20061;-62
2023/10/30 09:55:06;;;;;;;8.70;1.90;;;;;;;12.64;81.14;99930.31;5047587;28;20032;-62
2023/10/30 09:57:35;;;;;;;7.75;2.00;;;;;;;12.64;81.66;99916.41;5040835;28;20462;-61
2023/10/30 10:00:05;;;;;;;8.85;2.30;;;;;;;12.62;81.51;99911.13;5046175;28;20093;-62
2023/10/30 10:02:31;;;;;;;8.07;1.83;;;;;;;12.66;80.71;99914.16;5062492;28;20033;-61
2023/10/30 10:04:57;;;;;;;8.80;1.85;;;;;;;12.66;81.45;99906.63;5035863;28;20508;-63
2023/10/30 10:07:24;;;;;;;10.45;2.65;;;;;;;12.69;81.77;99902.41;5043828;28;20029;-61
2023/10/30 10:10:02;;;;;;;7.25;1.60;;;;;;;12.72;81.71;99899.06;5052890;28;20028;-60
2023/10/30 10:12:34;;;;;;;9.85;2.20;;;;;;;12.71;82.10;99902.97;5044374;28;20033;-60
2023/10/30 10:15:03;;;;;;;7.80;2.07;;;;;;;12.74;81.53;99896.84;5040327;28;20040;-61
2023/10/30 10:17:28;;;;;;;6.93;1.95;;;;;;;12.74;81.22;99894.06;5049959;28;20330;-61
2023/10/30 10:20:04;;;;;;;6.53;1.77;;;;;;;12.74;81.48;99897.66;5042520;28;20079;-60
2023/10/30 10:22:31;;;;;;;7.75;1.80;;;;;;;12.77;81.71;99901.81;5051600;28;20392;-60
2023/10/30 10:24:57;;;;;;;9.77;1.67;;;;;;;12.75;81.97;99899.31;5062973;28;20796;-61
2023/10/30 10:27:23;;;;;;;6.68;1.95;;;;;;;12.77;81.62;99911.00;5058593;28;20048;-61
2023/10/30 10:29:54;;;;;;;7.35;2.20;;;;;;;12.78;81.64;99917.41;5037714;28;20104;-61
2023/10/30 10:32:22;;;;;;;10.48;2.30;;;;;;;12.79;81.77;99899.56;5057111;28;20036;-60
2023/10/30 10:34:50;;;;;;;9.75;2.42;;;;;;;12.78;81.19;99893.16;5049371;28;20413;-59
2023/10/30 10:37:19;;;;;;;7.05;1.85;;;;;;;12.80;81.63;99895.66;5055252;28;20029;-59
2023/10/30 10:39:54;;;;;;;5.03;1.50;;;;;;;12.83;81.74;99899.81;5052833;28;20036;-60
2023/10/30 10:42:24;;;;;;;6.03;1.70;;;;;;;12.82;81.88;99901.78;5055359;28;20052;-60
2023/10/30 10:44:54;;;;;;;7.65;2.22;;;;;;;12.85;81.70;99894.78;5051406;28;20546;-61
2023/10/30 10:47:21;;;;;;;11.07;1.75;;;;;;;12.88;81.49;99903.38;5057610;28;20029;-60
2023/10/30 10:49:46;;;;;;;11.13;2.20;;;;;;;12.87;81.20;99896.16;5047172;28;20025;-60
2023/10/30 10:52:14;;;;;;;8.60;2.15;;;;;;;12.89;81.65;99913.41;5043717;28;20069;-60
2023/10/30 10:55:07;;;;;;;6.22;1.35;;;;;;;12.90;81.77;99898.38;5036390;28;20032;-60
2023/10/30 10:57:49;;;;;;;;;;;;;;;12.97;80.89;99884.94;5053759;28;20119;-60
2023/10/30 11:00:15;;;;;;;7.07;1.60;;;;;;;12.92;81.55;99884.97;5067738;28;19916;-60
2023/10/30 11:02:44;;;;;;;5.30;1.65;;;;;;;12.93;81.93;99895.00;5059227;28;20048;-60
2023/10/30 11:05:12;;;;;;;7.93;1.65;;;;;;;12.95;81.76;99889.13;5058600;28;20032;-61
2023/10/30 11:07:50;;;;;;;6.55;1.38;;;;;;;12.94;81.89;99891.09;5039719;28;20029;-58
2023/10/30 11:10:27;;;;;;;7.00;1.70;;;;;;;12.95;81.92;99884.38;5051822;28;20062;-60
2023/10/30 11:13:08;;;;;;;7.88;1.50;;;;;;;12.95;81.77;99875.19;5037671;28;20045;-60
2023/10/30 11:15:45;;;;;;;7.40;1.70;;;;;;;12.97;82.23;99879.38;5049788;28;20489;-61
2023/10/30 11:18:24;;;;;;;4.32;1.30;;;;;;;13.00;82.35;99870.41;5046765;28;20055;-62
2023/10/30 11:21:08;;;;;;;4.60;1.42;;;;;;;12.99;81.94;99874.31;5046479;28;20092;-61
2023/10/30 11:23:52;;;;;;;6.00;1.77;;;;;;;13.02;81.93;99879.31;5041396;28;20035;-59
2023/10/30 11:26:29;;;;;;;5.95;1.80;;;;;;;13.03;81.94;99855.06;5045440;28;20045;-60